EPWAEPKT

Guest
Details From EPWA - WARSZAWA Okecie
To EPKT - PYRZOWICE
Flight Number -
Tags generated
Created
Modified
Stats Distance 124 nm / 230 km
Max Altitude 7,800 ft / 2,377 m
Waypoints 3
Social Downloads 33
Likes 0
Share VATSIM

Download

Looking for another format? Having issues loading an existing format? Contact us
Advertisement - Login to hide

Notes

Basic altitude profile: - Ascent Rate: 2500ft/min - Ascent Speed: 250kts - Cruise Altitude: 35000ft - Cruise Speed: 420kts - Descent Rate: 1500ft/min - Descent Speed: 250kts Options: - Use NATs: yes - Use PACOTS: yes - Use low airways: yes - Use high airways: yes

Route

EPWA BESAL EPKT

ID Type Via Altitude Latitude Longitude Leg Dist Tot Dist Heading (true) Name
O EPWA APT - 0 ft / 0 m 52.16509˚ 20.96692˚ - 0 nm - WARSZAWA Okecie
BESAL FIX - 7,800 ft / 2,377 m 50.99333˚ 19.58528˚ 87 nm 87 nm 217° / 216° -
O EPKT APT - 0 ft / 0 m 50.47426˚ 19.07436˚ 36 nm 123 nm 212° / 212° PYRZOWICE

Altitude Profile

Advertisement - Login to hide

EPWA

Details ICAO EPWA (WAW)
Name WARSZAWA Okecie
Region Poland
Timezone Europe/Warsaw (UTC+1.0)
Stats Elevation 328 ft / 100 m (AMSL)
Location 52.165091° 20.966923°
Runways 2
Magnetic Variation 5.801° E

METAR

EPWA 141030Z 17011KT 9999 BKN040 02/M01 Q0994 R11/2///95 NOSIG

Decode

TAF

TAF TAF EPWA 140530Z 1406/1506 17010KT 9999 BKN040 BECMG 1406/1408 17015G25KT BKN014 TEMPO 1407/1410 2000 SN SNRA BKN005 BECMG 1409/1412 24010KT TEMPO 1410/1418 4000 RA RASN BR BKN007

Decode

Departure Runways

ID Width Length Bearing (true) Bearing (mag) Surface Threshold Offset Overrun Length
11 164 ft / 50 m 9,163 ft / 2,793 m 114.64° 108.84° Asphalt 0 ft / 0 m 476 ft / 145 m
15 197 ft / 60 m 12,112 ft / 3,692 m 151.85° 146.05° Asphalt 0 ft / 0 m 0 ft / 0 m
29 164 ft / 50 m 9,163 ft / 2,793 m 294.67° 288.87° Asphalt 1,608 ft / 490 m 0 ft / 0 m
33 197 ft / 60 m 12,112 ft / 3,692 m 331.87° 326.07° Asphalt 0 ft / 0 m 0 ft / 0 m

EPKT

Details ICAO EPKT (KTW)
Name PYRZOWICE
Region Poland
Timezone Europe/Warsaw (UTC+1.0)
Stats Elevation 995 ft / 303 m (AMSL)
Location 50.474263° 19.074356°
Runways 1
Magnetic Variation 5.085° E

METAR

EPKT 141030Z 21014KT 9999 FEW023 04/M01 Q0996

Decode

TAF

TAF EPKT 140530Z 1406/1506 18016G26KT CAVOK PROB30 TEMPO 1406/1408 3000 SN BKN014 BECMG 1407/1409 22022G37KT TEMPO 1411/1415 BKN017TCU BECMG 1414/1416 21016G27KT BECMG 1419/1422 20014KT BECMG 1500/1503 BKN014

Decode

Destination Runways

ID Width Length Bearing (true) Bearing (mag) Surface Threshold Offset Overrun Length
09 195 ft / 59 m 9,156 ft / 2,791 m 90.18° 85.10° Concrete 0 ft / 0 m 0 ft / 0 m
27 195 ft / 59 m 9,156 ft / 2,791 m 270.22° 265.14° Concrete 0 ft / 0 m 0 ft / 0 m

Approach Navaids

Runway Type Ident Frequency Range Bearing (true) Bearing (mag) Slope Elevation
27 Localiser KAT 109.90 MHz 18 nm / 33 km 270.18° 265.09° - 995 ft / 303 m (AMSL)
27 Glidescope KAT 109.90 MHz 10 nm / 19 km 270.20° 265.12° 3.20° 995 ft / 303 m (AMSL)

Popular Alternatives